Impacts METAR Board
IDs:

KMSP - Minneapolis-St Paul, MN, US

Updated at: 2300 UTC 01 Feb 2023
Potential Impact None Slight Moderate High
Time 01/11Z 01/12Z 01/13Z 01/14Z 01/15Z 01/16Z 01/17Z 01/18Z 01/19Z 01/20Z 01/21Z 01/22Z 01/23Z
Temp3 2 2 2 3 6 10 14 17 20 20 19 19
Dewpt-5 -5 -6 -5 -3 -2 -0 1 2 3 3 5 6
Altim30.17 30.18 30.19 30.19 30.18 30.19 30.20 30.17 30.14 30.11 30.10 30.08 30.08
VIS10 10 10 10 10 10 10 10 10 10 10 10 10
CIG-- -- -- -- -- -- -- 110 95 90 -- -- --
CoverCLRCLRCLRCLRCLRFEWSCTBKNBKNBKNFEWSCTSCT
FltCatVFRVFRVFRVFRVFRVFRVFRVFRVFRVFRVFRVFRVFR
WX--------------------------
WDir22002502200160190170200250210160160
WSpd3 0 4 5 0 3 3 3 4 5 7 7 8
WGst-- -- -- -- -- -- -- -- -- -- -- -- --
Raw hourly METARs
KMSP 011053Z 22003KT 10SM CLR M16/M21 A3017 RMK AO2 SLP238 T11611206
KMSP 011153Z 00000KT 10SM CLR M17/M21 A3018 RMK AO2 SLP242 4/010 T11671206 11128 21167 53005
KMSP 011253Z 25004KT 10SM CLR M17/M21 A3019 RMK AO2 SLP244 T11671211
KMSP 011353Z 22005KT 10SM CLR M17/M21 A3019 RMK AO2 SLP244 T11671206
KMSP 011453Z 00000KT 10SM CLR M16/M19 A3018 RMK AO2 SLP242 T11611194 50000
KMSP 011553Z 16003KT 10SM FEW250 M14/M19 A3019 RMK AO2 SLP244 T11441189
KMSP 011653Z 19003KT 10SM FEW100 SCT250 M12/M18 A3020 RMK AO2 SLP246 T11221178
KMSP 011753Z 17003KT 10SM BKN110 BKN140 M10/M17 A3017 RMK AO2 SLP235 4/010 T11001172 11100 21172 58003
KMSP 011853Z 20004KT 10SM FEW065 BKN095 BKN140 M08/M17 A3014 RMK AO2 PRESFR SLP223 T10831167
KMSP 011953Z 25005KT 10SM FEW065 BKN090 BKN140 M07/M16 A3011 RMK AO2 SLP216 T10671161
KMSP 012053Z 21007KT 10SM FEW075 M07/M16 A3010 RMK AO2 SLP212 T10671161 56022
KMSP 012153Z 16007KT 10SM FEW075 SCT150 M07/M15 A3008 RMK AO2 SLP205 T10721150
KMSP 012253Z 16008KT 10SM FEW060 SCT095 SCT150 M07/M14 A3008 RMK AO2 SLP203 T10721144



Page loaded:  23:05 UTC  |   03:05 PM Pacific  |   04:05 PM Mountain  |   05:05 PM Central  |   06:05 PM Eastern

 

ADVISORIES

FORECASTS

FORECASTS

OBSERVATIONS

USER TOOLS

ABOUT US